createdAt,value
2022-12-12T00:00:20.424Z,2.45
2022-12-12T00:00:46.018Z,2.35
2022-12-12T00:01:14.596Z,2.20
2022-12-12T00:01:38.771Z,2.40
2022-12-12T00:02:01.353Z,2.00
2022-12-12T00:02:23.359Z,1.98
2022-12-12T00:02:45.496Z,2.45
2022-12-12T00:03:07.325Z,2.05
2022-12-12T00:03:30.173Z,2.03
2022-12-12T00:03:52.556Z,2.50
2022-12-12T00:04:14.356Z,2.55
2022-12-12T00:04:36.949Z,1.85
2022-12-12T00:04:58.492Z,2.13
2022-12-12T00:05:20.265Z,2.20
2022-12-12T00:05:42.122Z,2.55
2022-12-12T00:06:04.986Z,2.20
2022-12-12T00:06:28.077Z,2.37
2022-12-12T00:06:50.316Z,2.67
2022-12-12T00:07:12.270Z,2.08
2022-12-12T00:07:34.156Z,2.22
2022-12-12T00:07:58.131Z,1.80
2022-12-12T00:08:19.937Z,2.35
2022-12-12T00:08:41.890Z,2.33
2022-12-12T00:09:03.914Z,2.15
2022-12-12T00:09:27.878Z,2.23
2022-12-12T00:09:50.986Z,2.75
2022-12-12T00:10:12.872Z,1.77
2022-12-12T00:10:35.873Z,1.70
2022-12-12T00:10:58.500Z,1.83
2022-12-12T00:11:20.581Z,2.58
2022-12-12T00:11:42.503Z,2.45
2022-12-12T00:12:05.007Z,2.33
2022-12-12T00:12:27.708Z,2.28
2022-12-12T00:12:49.801Z,2.00
2022-12-12T00:13:13.330Z,2.03
2022-12-12T00:13:35.388Z,2.33
2022-12-12T00:13:58.094Z,2.00
2022-12-12T00:14:19.712Z,2.00
2022-12-12T00:14:41.379Z,1.58
2022-12-12T00:15:03.858Z,1.95
2022-12-12T00:15:27.783Z,2.03
2022-12-12T00:15:49.795Z,2.05
2022-12-12T00:16:12.354Z,2.30
2022-12-12T00:16:35.142Z,2.20
2022-12-12T00:16:56.879Z,2.17
2022-12-12T00:17:18.517Z,2.05
2022-12-12T00:17:40.164Z,2.20
2022-12-12T00:18:02.771Z,2.80
2022-12-12T00:18:24.408Z,2.47
2022-12-12T00:18:46.639Z,1.75
2022-12-12T00:19:09.329Z,2.17
2022-12-12T00:19:31.011Z,2.70
2022-12-12T00:19:52.682Z,3.28
2022-12-12T00:20:14.354Z,2.72
2022-12-12T00:20:35.987Z,2.65
2022-12-12T00:20:59.611Z,2.75
2022-12-12T00:21:23.408Z,2.15
2022-12-12T00:21:45.127Z,2.35
2022-12-12T00:22:06.759Z,1.67
2022-12-12T00:22:29.359Z,1.42
2022-12-12T00:22:50.956Z,2.50
2022-12-12T00:23:12.663Z,2.15
2022-12-12T00:23:34.619Z,1.90
2022-12-12T00:23:58.210Z,1.85
2022-12-12T00:24:19.802Z,2.38
2022-12-12T00:24:41.350Z,2.28
2022-12-12T00:25:04.895Z,2.58
2022-12-12T00:25:27.467Z,2.20
2022-12-12T00:25:54.654Z,2.33
2022-12-12T00:26:19.248Z,2.20
2022-12-12T00:26:40.894Z,2.13
2022-12-12T00:27:03.757Z,2.63
2022-12-12T00:27:25.594Z,2.25
2022-12-12T00:27:47.170Z,2.60
2022-12-12T00:28:08.734Z,2.05
2022-12-12T00:28:31.346Z,2.05
2022-12-12T00:28:53.425Z,2.72
2022-12-12T00:29:15.083Z,2.27
2022-12-12T00:29:36.702Z,2.28
2022-12-12T00:29:59.414Z,2.22
2022-12-12T00:30:21.279Z,2.08
2022-12-12T00:30:42.908Z,1.90
2022-12-12T00:31:04.807Z,1.98
2022-12-12T00:31:28.026Z,2.00
2022-12-12T00:31:49.659Z,2.72
2022-12-12T00:32:11.539Z,1.92
2022-12-12T00:32:33.423Z,2.28
2022-12-12T00:32:55.972Z,2.15
2022-12-12T00:33:17.755Z,1.83
2022-12-12T00:33:39.548Z,1.95
2022-12-12T00:34:01.254Z,2.38
2022-12-12T00:34:23.855Z,2.17
2022-12-12T00:34:45.979Z,2.50
2022-12-12T00:35:08.167Z,2.40
2022-12-12T00:35:29.749Z,2.08
2022-12-12T00:35:53.693Z,2.60
2022-12-12T00:36:16.043Z,1.98
2022-12-12T00:36:37.755Z,1.52
2022-12-12T00:36:59.415Z,2.08
2022-12-12T00:37:22.081Z,2.25
2022-12-12T00:37:43.703Z,1.60
2022-12-12T00:38:05.293Z,1.63
2022-12-12T00:38:26.938Z,2.25
2022-12-12T00:38:49.550Z,2.53
2022-12-12T00:39:16.695Z,2.20
2022-12-12T00:39:40.491Z,2.05
2022-12-12T00:40:05.193Z,1.73
2022-12-12T00:40:26.768Z,2.53
2022-12-12T00:40:49.157Z,2.33
2022-12-12T00:41:11.635Z,2.30
2022-12-12T00:41:34.208Z,2.30
2022-12-12T00:41:55.806Z,1.88
2022-12-12T00:42:17.496Z,2.55
2022-12-12T00:42:39.122Z,2.65
2022-12-12T00:43:00.727Z,2.35
2022-12-12T00:43:23.399Z,2.17
2022-12-12T00:43:44.975Z,2.10
2022-12-12T00:44:06.580Z,1.52
2022-12-12T00:44:28.182Z,1.63
2022-12-12T00:44:50.821Z,2.38
2022-12-12T00:45:12.786Z,2.42
2022-12-12T00:45:34.718Z,2.80
2022-12-12T00:45:58.701Z,2.13
2022-12-12T00:46:24.572Z,2.35
2022-12-12T00:46:46.271Z,2.10
2022-12-12T00:47:08.242Z,2.20
2022-12-12T00:47:29.894Z,2.45
2022-12-12T00:47:52.426Z,2.50
2022-12-12T00:48:14.002Z,1.95
2022-12-12T00:48:35.652Z,1.97
2022-12-12T00:48:59.774Z,2.20
2022-12-12T00:49:21.505Z,2.10
2022-12-12T00:49:43.081Z,2.25
2022-12-12T00:50:06.425Z,2.00
2022-12-12T00:50:29.076Z,2.47
2022-12-12T00:50:50.794Z,2.30
2022-12-12T00:51:17.056Z,2.58
2022-12-12T00:51:39.599Z,2.03
2022-12-12T00:52:01.273Z,2.55
2022-12-12T00:52:22.879Z,2.80
2022-12-12T00:52:44.497Z,2.23
2022-12-12T00:53:07.128Z,2.30
2022-12-12T00:53:28.682Z,2.58
2022-12-12T00:53:51.171Z,2.78
2022-12-12T00:54:12.792Z,2.55
2022-12-12T00:54:35.378Z,2.05
2022-12-12T00:54:57.929Z,2.22
2022-12-12T00:55:21.589Z,2.67
2022-12-12T00:55:43.419Z,2.30
2022-12-12T00:56:07.580Z,2.35
2022-12-12T00:56:29.600Z,2.00
2022-12-12T00:56:51.464Z,1.83
2022-12-12T00:57:13.083Z,1.90
2022-12-12T00:57:35.898Z,1.75
2022-12-12T00:57:57.574Z,1.48
2022-12-12T00:58:19.195Z,1.98
2022-12-12T00:58:40.818Z,2.55
2022-12-12T00:59:04.202Z,2.33
2022-12-12T00:59:25.862Z,1.90
2022-12-12T00:59:47.581Z,2.17
2022-12-12T01:00:13.272Z,1.73
2022-12-12T01:00:38.131Z,2.10
2022-12-12T01:01:06.228Z,1.50
2022-12-12T01:01:30.984Z,1.90
2022-12-12T01:01:53.650Z,1.60
2022-12-12T01:02:15.349Z,1.80
2022-12-12T01:02:37.010Z,1.52
2022-12-12T01:02:59.492Z,2.00
2022-12-12T01:03:23.032Z,2.15
2022-12-12T01:03:45.128Z,1.58
2022-12-12T01:04:07.371Z,1.77
2022-12-12T01:04:29.957Z,1.63
2022-12-12T01:04:51.609Z,1.42
2022-12-12T01:05:14.111Z,1.80
2022-12-12T01:05:35.921Z,1.50
2022-12-12T01:05:58.575Z,1.55
2022-12-12T01:06:20.715Z,1.80
2022-12-12T01:06:42.342Z,1.75
2022-12-12T01:07:05.162Z,2.17
2022-12-12T01:07:26.878Z,1.80
2022-12-12T01:07:48.563Z,1.65
2022-12-12T01:08:10.299Z,1.50
2022-12-12T01:08:32.929Z,1.80
2022-12-12T01:08:54.582Z,1.85
2022-12-12T01:09:16.147Z,1.75
2022-12-12T01:09:37.795Z,1.90
2022-12-12T01:09:59.454Z,1.80
2022-12-12T01:10:23.819Z,1.85
2022-12-12T01:10:45.505Z,1.80
2022-12-12T01:11:08.794Z,2.00
2022-12-12T01:11:31.705Z,2.00
2022-12-12T01:11:53.268Z,1.75
2022-12-12T01:12:14.913Z,1.67
2022-12-12T01:12:36.730Z,1.90
2022-12-12T01:12:59.299Z,1.55
2022-12-12T01:13:20.984Z,1.67
2022-12-12T01:13:43.659Z,1.88
2022-12-12T01:14:05.336Z,1.83
2022-12-12T01:14:27.937Z,1.58
2022-12-12T01:14:50.363Z,1.42
2022-12-12T01:15:12.734Z,1.75
2022-12-12T01:15:34.487Z,2.20
2022-12-12T01:15:57.274Z,1.70
2022-12-12T01:16:19.450Z,1.95
2022-12-12T01:16:43.416Z,2.05
2022-12-12T01:17:06.263Z,1.88
2022-12-12T01:17:27.945Z,1.83
2022-12-12T01:17:49.530Z,1.73
2022-12-12T01:18:11.175Z,2.20
2022-12-12T01:18:34.279Z,1.90
2022-12-12T01:18:56.017Z,1.93
2022-12-12T01:19:17.714Z,2.08
2022-12-12T01:19:40.629Z,1.50
2022-12-12T01:20:02.890Z,1.90
2022-12-12T01:20:26.465Z,1.70
2022-12-12T01:20:48.067Z,1.95
2022-12-12T01:21:12.445Z,2.22
2022-12-12T01:21:34.047Z,1.52
2022-12-12T01:21:55.679Z,1.98
2022-12-12T01:22:17.308Z,1.67
2022-12-12T01:22:39.903Z,1.80
2022-12-12T01:23:01.544Z,1.73
2022-12-12T01:23:23.122Z,1.60
2022-12-12T01:23:45.246Z,1.85
2022-12-12T01:24:07.971Z,1.73
2022-12-12T01:24:29.727Z,2.30
2022-12-12T01:24:51.350Z,1.73
2022-12-12T01:25:14.737Z,1.70
2022-12-12T01:25:39.104Z,2.08
2022-12-12T01:26:01.585Z,1.15
2022-12-12T01:26:24.765Z,1.40
2022-12-12T01:26:47.337Z,1.40
2022-12-12T01:27:09.336Z,1.42
2022-12-12T01:27:30.946Z,1.67
2022-12-12T01:27:52.568Z,1.80
2022-12-12T01:28:15.588Z,1.60
2022-12-12T01:28:37.732Z,2.25
2022-12-12T01:28:59.345Z,2.42
2022-12-12T01:29:20.982Z,1.73
2022-12-12T01:29:43.557Z,1.60
2022-12-12T01:30:06.599Z,2.22
2022-12-12T01:30:29.654Z,2.33
2022-12-12T01:30:51.260Z,1.85
2022-12-12T01:31:14.680Z,1.40
2022-12-12T01:31:36.461Z,1.52
2022-12-12T01:31:58.129Z,1.50
2022-12-12T01:32:19.717Z,1.38
2022-12-12T01:32:42.295Z,2.03
2022-12-12T01:33:04.098Z,2.47
2022-12-12T01:33:25.796Z,2.13
2022-12-12T01:33:47.869Z,2.30
2022-12-12T01:34:10.474Z,2.05
2022-12-12T01:34:32.148Z,1.80
2022-12-12T01:34:53.809Z,1.55
2022-12-12T01:35:15.669Z,1.90
2022-12-12T01:35:38.500Z,2.10
2022-12-12T01:36:55.938Z,1.85
2022-12-12T01:37:18.678Z,2.05
2022-12-12T01:37:41.350Z,2.15
2022-12-12T01:38:04.755Z,2.15
2022-12-12T01:38:27.717Z,2.10
2022-12-12T01:38:52.571Z,2.15
2022-12-12T01:39:14.149Z,1.80
2022-12-12T01:39:35.769Z,1.85
2022-12-12T01:39:58.381Z,2.23
2022-12-12T01:40:22.199Z,2.55
2022-12-12T01:40:45.178Z,2.35
2022-12-12T01:41:07.783Z,1.58
2022-12-12T01:41:29.410Z,2.30
2022-12-12T01:41:50.999Z,2.20
2022-12-12T01:42:14.210Z,2.00
2022-12-12T01:42:36.807Z,2.17
2022-12-12T01:42:59.546Z,2.13
2022-12-12T01:43:23.789Z,2.33
2022-12-12T01:43:47.027Z,1.90
2022-12-12T01:44:38.411Z,1.85
2022-12-12T01:45:00.021Z,1.65
2022-12-12T01:46:05.647Z,2.03
2022-12-12T01:46:40.761Z,2.38
2022-12-12T01:47:03.360Z,1.75
2022-12-12T01:47:25.921Z,1.70
2022-12-12T01:47:47.519Z,2.00
2022-12-12T01:48:09.119Z,2.15
2022-12-12T01:48:33.802Z,2.03
2022-12-12T01:48:59.896Z,1.88
2022-12-12T01:49:24.610Z,1.23
2022-12-12T01:49:50.731Z,2.00
2022-12-12T01:50:12.416Z,1.70
2022-12-12T01:50:34.006Z,1.55
2022-12-12T01:50:57.683Z,1.67
2022-12-12T01:51:24.265Z,2.30
2022-12-12T01:51:48.810Z,2.00
2022-12-12T01:52:13.752Z,1.65
2022-12-12T01:52:43.568Z,1.65
2022-12-12T01:53:05.187Z,1.73
2022-12-12T01:53:30.511Z,1.52
2022-12-12T01:53:57.921Z,2.45
2022-12-12T01:54:24.229Z,2.88
2022-12-12T01:54:51.942Z,2.00
2022-12-12T01:55:20.253Z,1.60
2022-12-12T01:55:42.617Z,2.03
2022-12-12T01:56:12.347Z,2.05
2022-12-12T01:56:36.398Z,2.42
2022-12-12T01:57:00.897Z,2.47
2022-12-12T01:57:27.533Z,2.30
2022-12-12T01:57:53.461Z,2.10
2022-12-12T01:58:16.125Z,1.92
2022-12-12T01:58:39.709Z,1.83
2022-12-12T01:59:05.160Z,2.13
2022-12-12T01:59:29.185Z,2.47
2022-12-12T01:59:50.898Z,2.35
2022-12-12T02:00:13.902Z,1.98
2022-12-12T02:00:40.027Z,1.70
2022-12-12T02:01:02.130Z,1.90
2022-12-12T02:01:25.133Z,2.22
2022-12-12T02:01:46.944Z,2.17
2022-12-12T02:02:09.649Z,1.98
2022-12-12T02:02:32.433Z,2.10
2022-12-12T02:02:55.876Z,1.90
2022-12-12T02:03:17.556Z,2.00
2022-12-12T02:03:40.489Z,2.50
2022-12-12T02:04:02.895Z,2.25
2022-12-12T02:04:27.850Z,2.35
2022-12-12T02:04:49.586Z,1.73
2022-12-12T02:05:18.375Z,2.15
2022-12-12T02:05:44.267Z,2.13
2022-12-12T02:06:09.055Z,2.47
2022-12-12T02:06:31.930Z,1.83
2022-12-12T02:06:55.136Z,1.90
2022-12-12T02:07:17.821Z,2.15
2022-12-12T02:07:39.418Z,2.53
2022-12-12T02:08:04.005Z,2.13
2022-12-12T02:08:26.270Z,2.00
2022-12-12T02:08:49.722Z,2.22
2022-12-12T02:09:14.697Z,2.35
2022-12-12T02:09:37.770Z,1.98
2022-12-12T02:09:59.381Z,1.92
2022-12-12T02:10:21.374Z,1.85
2022-12-12T02:10:45.542Z,2.00
2022-12-12T02:11:08.766Z,2.08
2022-12-12T02:11:32.135Z,2.35
2022-12-12T02:11:56.269Z,2.13
2022-12-12T02:12:17.955Z,2.67
2022-12-12T02:12:39.782Z,2.15
2022-12-12T02:13:06.656Z,2.13
2022-12-12T02:13:31.646Z,2.33
2022-12-12T02:13:53.286Z,2.03
2022-12-12T02:14:19.606Z,1.58
2022-12-12T02:14:45.366Z,2.13
2022-12-12T02:15:07.835Z,1.88
2022-12-12T02:15:39.332Z,2.10
2022-12-12T02:16:09.716Z,1.92
2022-12-12T02:16:46.406Z,2.38
2022-12-12T02:17:29.236Z,2.22
2022-12-12T02:18:03.891Z,2.10
2022-12-12T02:18:35.505Z,2.38
2022-12-12T02:19:05.544Z,1.90
2022-12-12T02:20:04.919Z,2.55
2022-12-12T02:21:04.691Z,2.95
2022-12-12T02:21:33.137Z,2.20
2022-12-12T02:22:02.553Z,1.98
2022-12-12T02:22:40.117Z,2.22
2022-12-12T02:23:31.308Z,1.92
2022-12-12T02:24:34.641Z,2.72
2022-12-12T02:25:22.530Z,1.70
2022-12-12T02:26:04.985Z,2.42
2022-12-12T02:27:03.909Z,2.38
2022-12-12T02:28:00.673Z,2.40
2022-12-12T02:29:02.858Z,2.30
2022-12-12T02:30:03.643Z,2.00
2022-12-12T02:30:36.962Z,2.42
2022-12-12T02:31:16.389Z,2.35
2022-12-12T02:31:44.219Z,2.30
2022-12-12T02:32:12.017Z,2.10
2022-12-12T02:32:46.832Z,2.17
2022-12-12T02:33:37.698Z,1.55
2022-12-12T02:34:03.063Z,1.70
2022-12-12T02:34:33.324Z,2.25
2022-12-12T02:35:04.897Z,1.92
2022-12-12T02:35:35.508Z,2.33
2022-12-12T02:36:13.135Z,1.95
2022-12-12T02:36:43.354Z,2.40
2022-12-12T02:37:11.966Z,1.92
2022-12-12T02:37:42.167Z,2.55
2022-12-12T02:38:47.047Z,1.52
2022-12-12T02:39:19.436Z,2.45
2022-12-12T02:39:48.019Z,2.05
2022-12-12T02:40:19.530Z,2.17
2022-12-12T02:40:51.194Z,2.78
2022-12-12T02:41:18.046Z,2.17
2022-12-12T02:41:43.750Z,2.30
2022-12-12T02:42:12.172Z,2.03
2022-12-12T02:42:41.922Z,1.60
2022-12-12T02:43:09.377Z,2.33
2022-12-12T02:43:37.713Z,2.17
2022-12-12T02:44:09.764Z,2.38
2022-12-12T02:44:35.890Z,2.65
2022-12-12T02:45:02.296Z,2.65
2022-12-12T02:45:28.032Z,2.08
2022-12-12T02:45:57.630Z,1.60
2022-12-12T02:46:26.456Z,1.58
2022-12-12T02:46:55.518Z,2.38
2022-12-12T02:47:22.275Z,1.67
2022-12-12T02:47:48.378Z,2.00
2022-12-12T02:48:15.010Z,2.15
2022-12-12T02:48:40.847Z,2.20
2022-12-12T02:49:07.934Z,2.13
2022-12-12T02:49:35.334Z,2.20
2022-12-12T02:50:03.226Z,1.73
2022-12-12T02:50:28.148Z,1.70
2022-12-12T02:50:54.406Z,2.45
2022-12-12T02:51:17.876Z,1.90
2022-12-12T02:51:41.300Z,1.33
2022-12-12T02:52:03.833Z,1.95
2022-12-12T02:52:25.985Z,2.53
2022-12-12T02:52:48.377Z,1.98
2022-12-12T02:53:11.066Z,1.83
2022-12-12T02:53:32.727Z,2.03
2022-12-12T02:53:54.350Z,1.73
2022-12-12T02:54:18.334Z,1.90
2022-12-12T02:54:40.963Z,2.30
2022-12-12T02:55:03.281Z,2.05
2022-12-12T02:55:24.950Z,2.15
2022-12-12T02:55:47.929Z,2.00
2022-12-12T02:56:43.538Z,1.58
2022-12-12T02:57:15.279Z,1.70
2022-12-12T02:57:41.575Z,1.75
2022-12-12T02:58:05.465Z,1.52
2022-12-12T02:58:27.246Z,2.00
2022-12-12T02:58:49.083Z,2.58
2022-12-12T02:59:14.599Z,2.15
2022-12-12T02:59:40.078Z,2.30
2022-12-12T03:00:06.019Z,1.50
2022-12-12T03:00:34.549Z,1.38
2022-12-12T03:01:19.270Z,1.38
2022-12-12T03:02:04.255Z,2.20
2022-12-12T03:03:16.483Z,1.77
2022-12-12T03:04:03.068Z,1.40
2022-12-12T03:04:47.410Z,1.80
2022-12-12T03:05:56.206Z,1.88
2022-12-12T03:06:49.777Z,2.08
2022-12-12T03:07:41.672Z,1.98
2022-12-12T03:08:12.591Z,2.45
2022-12-12T03:08:47.867Z,1.48
2022-12-12T03:09:21.485Z,2.00
2022-12-12T03:10:00.551Z,1.60
2022-12-12T03:10:34.623Z,1.80
2022-12-12T03:10:59.777Z,1.83
2022-12-12T03:11:35.046Z,1.73
2022-12-12T03:12:05.144Z,1.90
2022-12-12T03:12:37.132Z,1.58
2022-12-12T03:13:10.181Z,1.33
2022-12-12T03:13:40.391Z,1.75
2022-12-12T03:14:10.434Z,1.70
2022-12-12T03:14:46.265Z,1.30
2022-12-12T03:15:16.629Z,1.60
2022-12-12T03:15:44.924Z,1.80
2022-12-12T03:16:20.164Z,2.13
2022-12-12T03:16:52.804Z,1.67
2022-12-12T03:17:22.463Z,1.65
2022-12-12T03:17:55.601Z,1.75
2022-12-12T03:18:26.547Z,2.20
2022-12-12T03:18:57.768Z,1.35
2022-12-12T03:19:29.346Z,2.00
2022-12-12T03:20:00.054Z,1.88
2022-12-12T03:20:26.888Z,2.30
2022-12-12T03:20:54.876Z,1.90
2022-12-12T03:21:22.584Z,2.17
2022-12-12T03:21:49.409Z,1.70
2022-12-12T03:22:17.881Z,1.60
2022-12-12T03:22:46.301Z,1.23
2022-12-12T03:23:12.749Z,1.65
2022-12-12T03:23:40.494Z,1.70
2022-12-12T03:24:07.089Z,1.42
2022-12-12T03:24:35.497Z,1.77
2022-12-12T03:25:04.357Z,1.63
2022-12-12T03:25:34.463Z,1.85
2022-12-12T03:26:01.089Z,1.98
2022-12-12T03:26:28.463Z,1.70
2022-12-12T03:26:55.792Z,1.60
2022-12-12T03:27:23.166Z,2.10
2022-12-12T03:27:51.173Z,1.60
2022-12-12T03:28:19.343Z,1.63
2022-12-12T03:28:46.760Z,1.65
2022-12-12T03:29:11.471Z,1.75
2022-12-12T03:29:38.251Z,1.70
2022-12-12T03:30:04.165Z,1.90
2022-12-12T03:30:27.999Z,2.15
2022-12-12T03:30:55.263Z,2.17
2022-12-12T03:31:21.345Z,1.65
2022-12-12T03:31:50.546Z,1.63
2022-12-12T03:32:17.271Z,1.73
2022-12-12T03:32:45.385Z,2.20
2022-12-12T03:33:15.455Z,1.38
2022-12-12T03:33:42.587Z,1.40
2022-12-12T03:34:08.021Z,1.70
2022-12-12T03:34:35.629Z,1.95
2022-12-12T03:35:04.007Z,2.17
2022-12-12T03:35:28.902Z,2.00
2022-12-12T03:35:56.280Z,1.30
2022-12-12T03:36:25.634Z,1.77
2022-12-12T03:36:52.450Z,1.52
2022-12-12T03:37:19.711Z,1.90
2022-12-12T03:37:46.987Z,1.67
2022-12-12T03:38:14.185Z,1.80
2022-12-12T03:38:39.983Z,1.50
2022-12-12T03:39:07.516Z,1.90
2022-12-12T03:39:34.853Z,1.50
2022-12-12T03:39:59.566Z,1.90
2022-12-12T03:40:27.862Z,2.17
2022-12-12T03:40:53.452Z,1.83
2022-12-12T03:41:20.349Z,1.48
2022-12-12T03:41:44.778Z,1.92
2022-12-12T03:42:13.524Z,2.22
2022-12-12T03:42:40.208Z,1.83
2022-12-12T03:43:08.882Z,1.30
2022-12-12T03:43:34.876Z,1.60
2022-12-12T03:44:03.863Z,1.40
2022-12-12T03:44:29.277Z,1.65
2022-12-12T03:44:55.296Z,1.52
2022-12-12T03:45:25.520Z,1.50
2022-12-12T03:45:55.063Z,1.55
2022-12-12T03:46:20.808Z,1.60
2022-12-12T03:46:48.706Z,1.50
2022-12-12T03:47:13.727Z,1.95
2022-12-12T03:47:41.229Z,1.75
2022-12-12T03:48:08.288Z,1.17
2022-12-12T03:48:34.607Z,1.20
2022-12-12T03:49:01.039Z,1.25
2022-12-12T03:49:28.499Z,1.60
2022-12-12T03:49:55.253Z,1.30
2022-12-12T03:50:21.437Z,1.60
2022-12-12T03:50:45.429Z,1.55
2022-12-12T03:51:11.876Z,1.50
2022-12-12T03:51:38.021Z,1.45
2022-12-12T03:52:07.370Z,1.60
2022-12-12T03:52:33.509Z,1.52
2022-12-12T03:52:59.418Z,2.40
2022-12-12T03:53:27.340Z,1.50
2022-12-12T03:53:57.713Z,1.58
2022-12-12T03:54:25.648Z,1.63
2022-12-12T03:54:51.105Z,1.80
2022-12-12T03:55:16.391Z,2.30
2022-12-12T03:55:44.805Z,1.70
2022-12-12T03:56:13.826Z,1.48
2022-12-12T03:56:43.709Z,1.50
2022-12-12T03:57:10.955Z,1.30
2022-12-12T03:57:38.644Z,1.38
2022-12-12T03:58:05.237Z,1.30
2022-12-12T03:58:31.515Z,1.50
2022-12-12T03:58:59.407Z,2.47
2022-12-12T03:59:27.475Z,1.38
2022-12-12T03:59:55.501Z,1.70
2022-12-12T04:00:18.089Z,1.88
2022-12-12T04:00:42.188Z,1.80
2022-12-12T04:01:10.239Z,1.13
2022-12-12T04:01:39.736Z,1.77
2022-12-12T04:02:11.799Z,1.40
2022-12-12T04:02:41.042Z,2.15
2022-12-12T04:03:08.318Z,1.55
2022-12-12T04:03:35.846Z,1.98
2022-12-12T04:04:04.019Z,1.80
2022-12-12T04:04:32.711Z,1.90
2022-12-12T04:05:02.277Z,1.35
2022-12-12T04:05:29.417Z,2.00
2022-12-12T04:06:16.439Z,2.00
2022-12-12T04:06:41.972Z,1.58
2022-12-12T04:07:10.659Z,1.52
2022-12-12T04:07:37.148Z,1.63
2022-12-12T04:08:04.591Z,1.65
2022-12-12T04:08:27.550Z,1.63
2022-12-12T04:09:08.361Z,1.40
2022-12-12T04:09:49.165Z,1.42
2022-12-12T04:10:30.640Z,1.67
2022-12-12T04:11:15.866Z,1.90
2022-12-12T04:12:00.697Z,1.58
2022-12-12T04:12:49.431Z,1.52
2022-12-12T04:13:16.875Z,1.60
2022-12-12T04:13:47.581Z,1.52
2022-12-12T04:14:24.893Z,1.50
2022-12-12T04:15:13.797Z,1.55
2022-12-12T04:15:47.453Z,1.60
2022-12-12T04:16:11.971Z,1.30
2022-12-12T04:16:40.798Z,1.38
2022-12-12T04:17:05.897Z,1.67
2022-12-12T04:17:36.877Z,1.52
2022-12-12T04:18:13.307Z,1.35
2022-12-12T04:18:41.489Z,1.50
2022-12-12T04:19:08.954Z,1.52
2022-12-12T04:19:55.272Z,1.08
2022-12-12T04:20:43.070Z,2.22
2022-12-12T04:21:51.095Z,1.52
2022-12-12T04:22:40.200Z,1.40
2022-12-12T04:23:18.187Z,1.40
2022-12-12T04:23:51.353Z,1.27
2022-12-12T04:24:22.086Z,1.80
2022-12-12T04:24:48.294Z,1.40
2022-12-12T04:25:21.317Z,1.02
2022-12-12T04:26:16.594Z,1.35
2022-12-12T04:26:44.531Z,1.20
2022-12-12T04:27:14.775Z,1.65
2022-12-12T04:27:41.459Z,1.85
2022-12-12T04:28:07.466Z,1.58
2022-12-12T04:28:32.459Z,1.77
2022-12-12T04:29:01.458Z,1.50
2022-12-12T04:29:30.434Z,1.17
2022-12-12T04:30:01.263Z,1.65
2022-12-12T04:30:22.988Z,0.90
2022-12-12T04:30:44.646Z,1.13
2022-12-12T04:31:07.701Z,1.23
2022-12-12T04:31:33.129Z,1.52
2022-12-12T04:31:59.775Z,1.20
2022-12-12T04:32:28.400Z,1.10
2022-12-12T04:32:58.230Z,1.48
2022-12-12T04:33:21.819Z,1.77
2022-12-12T04:33:50.150Z,1.35
2022-12-12T04:34:17.775Z,1.67
2022-12-12T04:34:45.271Z,1.27
2022-12-12T04:35:13.178Z,1.25
2022-12-12T04:35:38.870Z,1.77
2022-12-12T04:36:02.289Z,1.15
2022-12-12T04:36:26.904Z,1.02
2022-12-12T04:36:49.792Z,1.20
2022-12-12T04:37:15.856Z,1.48
2022-12-12T04:37:43.617Z,1.77
2022-12-12T04:38:08.342Z,1.55
2022-12-12T04:38:30.082Z,1.20
2022-12-12T04:38:53.026Z,1.42
2022-12-12T04:39:19.538Z,1.60
2022-12-12T04:39:43.497Z,1.13
2022-12-12T04:40:09.000Z,1.27
2022-12-12T04:40:34.899Z,1.27
2022-12-12T04:41:00.450Z,1.42
2022-12-12T04:41:23.036Z,1.48
2022-12-12T04:41:46.754Z,1.63
2022-12-12T04:42:14.401Z,1.42
2022-12-12T04:42:41.798Z,1.15
2022-12-12T04:43:07.055Z,1.52
2022-12-12T04:43:33.179Z,1.58
2022-12-12T04:43:57.351Z,0.98
2022-12-12T04:44:22.466Z,1.30
2022-12-12T04:44:45.526Z,1.15
2022-12-12T04:45:12.413Z,1.23
2022-12-12T04:45:38.250Z,1.30
2022-12-12T04:46:04.905Z,1.05
2022-12-12T04:46:33.144Z,1.38
2022-12-12T04:46:57.293Z,1.35
2022-12-12T04:47:20.490Z,1.17
2022-12-12T04:47:47.310Z,1.50
2022-12-12T04:48:15.601Z,1.42
2022-12-12T04:48:43.907Z,1.38
2022-12-12T04:49:12.090Z,1.33
2022-12-12T04:49:36.712Z,1.55
2022-12-12T04:50:01.050Z,1.60
2022-12-12T04:50:25.435Z,1.33
2022-12-12T04:50:50.565Z,1.40
2022-12-12T04:51:15.478Z,1.27
2022-12-12T04:51:42.530Z,1.50
2022-12-12T04:52:08.134Z,1.17
2022-12-12T04:52:32.951Z,1.23
2022-12-12T04:52:58.865Z,1.50
2022-12-12T04:53:28.724Z,1.63
2022-12-12T04:53:55.806Z,1.25
2022-12-12T04:54:25.030Z,1.33
2022-12-12T04:54:52.065Z,1.40
2022-12-12T04:55:19.170Z,1.30
2022-12-12T04:55:44.290Z,1.17
2022-12-12T04:56:11.410Z,1.13
2022-12-12T04:56:37.152Z,1.23
2022-12-12T04:57:02.748Z,1.17
2022-12-12T04:57:27.620Z,1.17
2022-12-12T04:57:54.796Z,1.20
2022-12-12T04:58:17.354Z,1.30
2022-12-12T04:58:40.159Z,1.08
2022-12-12T04:59:02.938Z,1.23
2022-12-12T04:59:25.727Z,1.10
2022-12-12T04:59:48.192Z,1.80
2022-12-12T05:00:12.599Z,1.13
2022-12-12T05:00:42.538Z,1.65
2022-12-12T05:01:09.602Z,1.23
2022-12-12T05:01:38.224Z,1.27
2022-12-12T05:02:05.767Z,1.00
2022-12-12T05:02:34.776Z,0.93
2022-12-12T05:03:06.054Z,1.67
2022-12-12T05:03:35.105Z,1.55
2022-12-12T05:04:00.953Z,1.27
2022-12-12T05:04:29.974Z,2.15
2022-12-12T05:04:58.602Z,1.17
2022-12-12T05:05:26.381Z,1.42
2022-12-12T05:05:53.563Z,1.27
2022-12-12T05:06:19.779Z,1.60
2022-12-12T05:06:46.097Z,1.42
2022-12-12T05:07:11.147Z,1.40
2022-12-12T05:07:40.018Z,1.58
2022-12-12T05:08:07.702Z,1.10
2022-12-12T05:08:33.376Z,1.00
2022-12-12T05:08:57.019Z,1.83
2022-12-12T05:09:19.570Z,1.17
2022-12-12T05:09:41.326Z,1.08
2022-12-12T05:10:07.051Z,1.50
2022-12-12T05:10:29.118Z,1.23
2022-12-12T05:10:54.198Z,1.10
2022-12-12T05:11:19.012Z,1.23
2022-12-12T05:11:43.299Z,1.55
2022-12-12T05:12:05.392Z,1.42
2022-12-12T05:12:27.219Z,1.17
2022-12-12T05:12:50.814Z,1.40
2022-12-12T05:13:17.911Z,1.30
2022-12-12T05:13:42.114Z,1.80
2022-12-12T05:14:03.850Z,1.40
2022-12-12T05:14:25.460Z,1.30
2022-12-12T05:14:49.195Z,1.27
2022-12-12T05:15:12.472Z,1.50
2022-12-12T05:15:34.298Z,1.65
2022-12-12T05:15:58.569Z,1.45
2022-12-12T05:16:24.913Z,1.25
2022-12-12T05:16:49.362Z,1.58
2022-12-12T05:17:17.098Z,1.50
2022-12-12T05:17:44.250Z,0.93
2022-12-12T05:18:08.977Z,1.33
2022-12-12T05:18:31.204Z,1.20
2022-12-12T05:18:53.117Z,1.67
2022-12-12T05:19:15.844Z,1.40
2022-12-12T05:19:37.512Z,1.48
2022-12-12T05:19:59.137Z,1.30
2022-12-12T05:20:21.655Z,1.27
2022-12-12T05:20:44.264Z,1.35
2022-12-12T05:21:05.926Z,1.67
2022-12-12T05:21:27.852Z,1.83
2022-12-12T05:21:49.517Z,1.15
2022-12-12T05:22:12.081Z,1.23
2022-12-12T05:22:33.639Z,1.50
2022-12-12T05:22:55.209Z,1.80
2022-12-12T05:23:17.040Z,1.13
2022-12-12T05:23:39.763Z,0.95
2022-12-12T05:24:02.034Z,0.98
2022-12-12T05:24:23.609Z,1.42
2022-12-12T05:24:45.174Z,1.55
2022-12-12T05:25:08.423Z,1.67
2022-12-12T05:25:30.169Z,1.20
2022-12-12T05:25:51.771Z,1.48
2022-12-12T05:26:26.312Z,1.27
2022-12-12T05:26:48.875Z,1.42
2022-12-12T05:27:12.427Z,1.35
2022-12-12T05:27:34.589Z,1.05
2022-12-12T05:27:56.469Z,1.00
2022-12-12T05:28:19.059Z,1.08
2022-12-12T05:28:40.595Z,1.02
2022-12-12T05:29:07.261Z,1.45
2022-12-12T05:29:31.944Z,1.40
2022-12-12T05:29:53.537Z,1.35
2022-12-12T05:30:15.588Z,1.33
2022-12-12T05:30:37.354Z,1.50
2022-12-12T05:31:00.039Z,1.48
2022-12-12T05:31:21.891Z,1.45
2022-12-12T05:31:43.516Z,1.63
2022-12-12T05:32:06.245Z,1.48
2022-12-12T05:32:27.872Z,1.20
2022-12-12T05:32:49.533Z,1.38
2022-12-12T05:33:12.482Z,1.42
2022-12-12T05:33:35.092Z,1.08
2022-12-12T05:33:56.650Z,1.23
2022-12-12T05:34:18.480Z,1.38
2022-12-12T05:34:40.144Z,1.25
2022-12-12T05:35:02.746Z,1.08
2022-12-12T05:35:24.885Z,1.17
2022-12-12T05:35:46.475Z,1.63
2022-12-12T05:36:08.607Z,1.50
2022-12-12T05:36:31.355Z,1.23
2022-12-12T05:36:52.978Z,1.13
2022-12-12T05:37:14.550Z,1.55
2022-12-12T05:37:36.206Z,1.30
2022-12-12T05:37:57.802Z,1.15
2022-12-12T05:38:20.377Z,1.10
2022-12-12T05:38:42.117Z,1.30
2022-12-12T05:39:03.773Z,1.42
2022-12-12T05:39:25.336Z,1.53
2022-12-12T05:39:47.926Z,1.38
2022-12-12T05:40:12.683Z,1.00
2022-12-12T05:40:34.326Z,1.38
2022-12-12T05:40:56.883Z,1.20
2022-12-12T05:41:18.503Z,1.15
2022-12-12T05:41:40.149Z,1.25
2022-12-12T05:42:02.699Z,1.27
2022-12-12T05:42:24.409Z,1.23
2022-12-12T05:42:46.640Z,1.30
2022-12-12T05:43:08.304Z,1.35
2022-12-12T05:43:31.014Z,1.30
2022-12-12T05:43:54.493Z,1.00
2022-12-12T05:44:17.058Z,1.42
2022-12-12T05:44:39.698Z,1.63
2022-12-12T05:45:01.362Z,1.23
2022-12-12T05:45:23.019Z,0.90
2022-12-12T05:45:44.819Z,1.08
2022-12-12T05:46:07.907Z,1.42
2022-12-12T05:46:29.663Z,1.25
2022-12-12T05:46:51.325Z,0.98
2022-12-12T05:47:15.402Z,1.10
2022-12-12T05:47:40.831Z,1.65